sensor_id;sensor_type;location;lat;lon;timestamp;P1;durP1;ratioP1;P2;durP2;ratioP2
50555;SDS011;36508;52.512;13.450;2024-02-26T00:01:37;17.50;;;15.90;;
50555;SDS011;36508;52.512;13.450;2024-02-26T00:04:03;17.27;;;15.47;;
50555;SDS011;36508;52.512;13.450;2024-02-26T00:06:30;17.43;;;15.63;;
50555;SDS011;36508;52.512;13.450;2024-02-26T00:08:56;16.97;;;15.27;;
50555;SDS011;36508;52.512;13.450;2024-02-26T00:11:22;16.80;;;15.17;;
50555;SDS011;36508;52.512;13.450;2024-02-26T00:13:47;14.87;;;13.57;;
50555;SDS011;36508;52.512;13.450;2024-02-26T00:18:56;15.33;;;13.73;;
50555;SDS011;36508;52.512;13.450;2024-02-26T00:21:22;16.77;;;15.53;;
50555;SDS011;36508;52.512;13.450;2024-02-26T00:23:49;15.80;;;14.30;;
50555;SDS011;36508;52.512;13.450;2024-02-26T00:26:15;14.90;;;13.40;;
50555;SDS011;36508;52.512;13.450;2024-02-26T00:28:41;14.97;;;13.43;;
50555;SDS011;36508;52.512;13.450;2024-02-26T00:31:08;37.43;;;19.43;;
50555;SDS011;36508;52.512;13.450;2024-02-26T00:33:33;17.77;;;15.33;;
50555;SDS011;36508;52.512;13.450;2024-02-26T00:35:59;17.03;;;15.30;;
50555;SDS011;36508;52.512;13.450;2024-02-26T00:38:24;21.43;;;15.70;;
50555;SDS011;36508;52.512;13.450;2024-02-26T00:40:50;18.23;;;16.53;;
50555;SDS011;36508;52.512;13.450;2024-02-26T00:43:15;17.27;;;15.50;;
50555;SDS011;36508;52.512;13.450;2024-02-26T00:45:41;16.70;;;15.00;;
50555;SDS011;36508;52.512;13.450;2024-02-26T00:48:07;17.83;;;16.10;;
50555;SDS011;36508;52.512;13.450;2024-02-26T00:50:32;15.83;;;14.30;;
50555;SDS011;36508;52.512;13.450;2024-02-26T00:52:59;16.63;;;14.37;;
50555;SDS011;36508;52.512;13.450;2024-02-26T00:55:27;16.47;;;14.70;;
50555;SDS011;36508;52.512;13.450;2024-02-26T00:57:53;13.50;;;12.40;;
50555;SDS011;36508;52.512;13.450;2024-02-26T01:00:18;16.00;;;14.20;;
50555;SDS011;36508;52.512;13.450;2024-02-26T01:02:44;12.60;;;11.40;;
50555;SDS011;36508;52.512;13.450;2024-02-26T01:05:13;11.90;;;10.70;;
50555;SDS011;36508;52.512;13.450;2024-02-26T01:07:39;13.00;;;11.90;;
50555;SDS011;36508;52.512;13.450;2024-02-26T01:10:06;11.83;;;10.83;;
50555;SDS011;36508;52.512;13.450;2024-02-26T01:12:32;12.20;;;11.10;;
50555;SDS011;36508;52.512;13.450;2024-02-26T01:14:59;13.30;;;12.20;;
50555;SDS011;36508;52.512;13.450;2024-02-26T01:17:25;12.37;;;10.30;;
50555;SDS011;36508;52.512;13.450;2024-02-26T01:19:50;10.53;;;9.60;;
50555;SDS011;36508;52.512;13.450;2024-02-26T01:22:16;12.50;;;11.20;;
50555;SDS011;36508;52.512;13.450;2024-02-26T01:24:41;11.20;;;10.33;;
50555;SDS011;36508;52.512;13.450;2024-02-26T01:27:07;10.07;;;9.23;;
50555;SDS011;36508;52.512;13.450;2024-02-26T01:29:34;10.20;;;9.30;;
50555;SDS011;36508;52.512;13.450;2024-02-26T01:31:59;10.53;;;9.43;;
50555;SDS011;36508;52.512;13.450;2024-02-26T01:34:25;12.03;;;10.93;;
50555;SDS011;36508;52.512;13.450;2024-02-26T01:36:51;10.63;;;9.83;;
50555;SDS011;36508;52.512;13.450;2024-02-26T01:39:16;10.13;;;9.33;;
50555;SDS011;36508;52.512;13.450;2024-02-26T01:41:42;9.77;;;8.93;;
50555;SDS011;36508;52.512;13.450;2024-02-26T01:44:08;10.03;;;9.03;;
50555;SDS011;36508;52.512;13.450;2024-02-26T01:46:39;9.60;;;8.80;;
50555;SDS011;36508;52.512;13.450;2024-02-26T01:49:05;9.47;;;8.77;;
50555;SDS011;36508;52.512;13.450;2024-02-26T01:51:32;8.73;;;7.97;;
50555;SDS011;36508;52.512;13.450;2024-02-26T01:54:00;9.27;;;7.33;;
50555;SDS011;36508;52.512;13.450;2024-02-26T01:56:27;9.20;;;8.40;;
50555;SDS011;36508;52.512;13.450;2024-02-26T01:58:56;8.33;;;7.53;;
50555;SDS011;36508;52.512;13.450;2024-02-26T02:01:24;8.83;;;8.23;;
50555;SDS011;36508;52.512;13.450;2024-02-26T02:03:51;10.07;;;9.17;;
50555;SDS011;36508;52.512;13.450;2024-02-26T02:06:18;11.10;;;10.20;;
50555;SDS011;36508;52.512;13.450;2024-02-26T02:08:44;8.93;;;8.03;;
50555;SDS011;36508;52.512;13.450;2024-02-26T02:11:12;11.83;;;9.13;;
50555;SDS011;36508;52.512;13.450;2024-02-26T02:13:39;9.27;;;8.50;;
50555;SDS011;36508;52.512;13.450;2024-02-26T02:16:06;7.50;;;6.90;;
50555;SDS011;36508;52.512;13.450;2024-02-26T02:18:35;8.10;;;7.60;;
50555;SDS011;36508;52.512;13.450;2024-02-26T02:21:00;8.30;;;7.50;;
50555;SDS011;36508;52.512;13.450;2024-02-26T02:23:26;8.30;;;7.60;;
50555;SDS011;36508;52.512;13.450;2024-02-26T02:25:52;12.07;;;11.00;;
50555;SDS011;36508;52.512;13.450;2024-02-26T02:28:18;9.80;;;9.07;;
50555;SDS011;36508;52.512;13.450;2024-02-26T02:30:44;9.70;;;8.63;;
50555;SDS011;36508;52.512;13.450;2024-02-26T02:33:10;9.17;;;8.27;;
50555;SDS011;36508;52.512;13.450;2024-02-26T02:35:37;8.60;;;7.90;;
50555;SDS011;36508;52.512;13.450;2024-02-26T02:38:03;9.60;;;8.83;;
50555;SDS011;36508;52.512;13.450;2024-02-26T02:40:28;9.20;;;8.10;;
50555;SDS011;36508;52.512;13.450;2024-02-26T02:42:54;8.13;;;7.47;;
50555;SDS011;36508;52.512;13.450;2024-02-26T02:45:20;7.37;;;6.77;;
50555;SDS011;36508;52.512;13.450;2024-02-26T02:47:45;12.20;;;11.00;;
50555;SDS011;36508;52.512;13.450;2024-02-26T02:50:11;7.80;;;7.20;;
50555;SDS011;36508;52.512;13.450;2024-02-26T02:52:36;10.93;;;9.20;;
50555;SDS011;36508;52.512;13.450;2024-02-26T02:55:02;11.53;;;9.03;;
50555;SDS011;36508;52.512;13.450;2024-02-26T02:57:28;8.63;;;7.70;;
50555;SDS011;36508;52.512;13.450;2024-02-26T02:59:54;8.20;;;7.50;;
50555;SDS011;36508;52.512;13.450;2024-02-26T03:02:20;11.50;;;8.20;;
50555;SDS011;36508;52.512;13.450;2024-02-26T03:04:45;9.00;;;8.20;;
50555;SDS011;36508;52.512;13.450;2024-02-26T03:07:11;8.23;;;7.47;;
50555;SDS011;36508;52.512;13.450;2024-02-26T03:09:36;7.87;;;7.07;;
50555;SDS011;36508;52.512;13.450;2024-02-26T03:12:02;6.90;;;6.50;;
50555;SDS011;36508;52.512;13.450;2024-02-26T03:14:28;9.80;;;9.00;;
50555;SDS011;36508;52.512;13.450;2024-02-26T03:16:54;8.07;;;7.47;;
50555;SDS011;36508;52.512;13.450;2024-02-26T03:19:20;8.53;;;7.73;;
50555;SDS011;36508;52.512;13.450;2024-02-26T03:21:46;6.30;;;5.80;;
50555;SDS011;36508;52.512;13.450;2024-02-26T03:24:11;8.17;;;7.60;;
50555;SDS011;36508;52.512;13.450;2024-02-26T03:26:37;8.07;;;7.27;;
50555;SDS011;36508;52.512;13.450;2024-02-26T03:29:03;7.33;;;6.70;;
50555;SDS011;36508;52.512;13.450;2024-02-26T03:31:29;7.20;;;6.50;;
50555;SDS011;36508;52.512;13.450;2024-02-26T03:33:54;8.77;;;7.97;;
50555;SDS011;36508;52.512;13.450;2024-02-26T03:36:20;7.80;;;7.20;;
50555;SDS011;36508;52.512;13.450;2024-02-26T03:38:46;7.90;;;7.30;;
50555;SDS011;36508;52.512;13.450;2024-02-26T03:41:13;9.87;;;7.27;;
50555;SDS011;36508;52.512;13.450;2024-02-26T03:43:39;7.70;;;7.10;;
50555;SDS011;36508;52.512;13.450;2024-02-26T03:46:07;7.20;;;6.70;;
50555;SDS011;36508;52.512;13.450;2024-02-26T03:48:33;7.50;;;6.80;;
50555;SDS011;36508;52.512;13.450;2024-02-26T03:50:59;8.17;;;7.57;;
50555;SDS011;36508;52.512;13.450;2024-02-26T03:53:25;10.60;;;9.73;;
50555;SDS011;36508;52.512;13.450;2024-02-26T03:55:51;8.20;;;7.40;;
50555;SDS011;36508;52.512;13.450;2024-02-26T03:58:17;7.97;;;7.13;;
50555;SDS011;36508;52.512;13.450;2024-02-26T04:00:43;6.70;;;6.30;;
50555;SDS011;36508;52.512;13.450;2024-02-26T04:03:09;7.93;;;7.30;;
50555;SDS011;36508;52.512;13.450;2024-02-26T04:05:34;9.27;;;7.77;;
50555;SDS011;36508;52.512;13.450;2024-02-26T04:08:00;8.27;;;7.57;;
50555;SDS011;36508;52.512;13.450;2024-02-26T04:10:26;7.80;;;7.20;;
50555;SDS011;36508;52.512;13.450;2024-02-26T04:12:51;8.53;;;7.83;;
50555;SDS011;36508;52.512;13.450;2024-02-26T04:15:17;8.97;;;8.07;;
50555;SDS011;36508;52.512;13.450;2024-02-26T04:17:42;9.10;;;8.30;;
50555;SDS011;36508;52.512;13.450;2024-02-26T04:20:12;8.80;;;8.10;;
50555;SDS011;36508;52.512;13.450;2024-02-26T04:22:39;8.37;;;7.60;;
50555;SDS011;36508;52.512;13.450;2024-02-26T04:25:04;8.70;;;8.00;;
50555;SDS011;36508;52.512;13.450;2024-02-26T04:27:30;9.30;;;8.50;;
50555;SDS011;36508;52.512;13.450;2024-02-26T04:29:55;10.27;;;9.23;;
50555;SDS011;36508;52.512;13.450;2024-02-26T04:32:21;10.47;;;9.60;;
50555;SDS011;36508;52.512;13.450;2024-02-26T04:34:47;9.40;;;8.70;;
50555;SDS011;36508;52.512;13.450;2024-02-26T04:37:12;8.90;;;8.20;;
50555;SDS011;36508;52.512;13.450;2024-02-26T04:39:38;8.53;;;7.97;;
50555;SDS011;36508;52.512;13.450;2024-02-26T04:42:03;10.50;;;9.60;;
50555;SDS011;36508;52.512;13.450;2024-02-26T04:44:29;10.30;;;9.50;;
50555;SDS011;36508;52.512;13.450;2024-02-26T04:46:55;8.93;;;8.30;;
50555;SDS011;36508;52.512;13.450;2024-02-26T04:49:21;10.50;;;9.67;;
50555;SDS011;36508;52.512;13.450;2024-02-26T04:51:47;10.60;;;9.70;;
50555;SDS011;36508;52.512;13.450;2024-02-26T04:54:13;9.53;;;8.63;;
50555;SDS011;36508;52.512;13.450;2024-02-26T04:56:38;11.63;;;10.53;;
50555;SDS011;36508;52.512;13.450;2024-02-26T04:59:04;10.27;;;9.47;;
50555;SDS011;36508;52.512;13.450;2024-02-26T05:01:30;12.07;;;10.97;;
50555;SDS011;36508;52.512;13.450;2024-02-26T05:03:55;11.33;;;10.33;;
50555;SDS011;36508;52.512;13.450;2024-02-26T05:06:21;12.70;;;11.57;;
50555;SDS011;36508;52.512;13.450;2024-02-26T05:08:46;11.53;;;10.43;;
50555;SDS011;36508;52.512;13.450;2024-02-26T05:11:12;12.13;;;11.00;;
50555;SDS011;36508;52.512;13.450;2024-02-26T05:13:37;10.80;;;9.90;;
50555;SDS011;36508;52.512;13.450;2024-02-26T05:16:03;12.23;;;11.20;;
50555;SDS011;36508;52.512;13.450;2024-02-26T05:18:29;13.80;;;11.40;;
50555;SDS011;36508;52.512;13.450;2024-02-26T05:20:54;12.47;;;11.47;;
50555;SDS011;36508;52.512;13.450;2024-02-26T05:23:20;12.90;;;11.80;;
50555;SDS011;36508;52.512;13.450;2024-02-26T05:25:46;17.77;;;16.00;;
50555;SDS011;36508;52.512;13.450;2024-02-26T05:28:13;13.03;;;12.00;;
50555;SDS011;36508;52.512;13.450;2024-02-26T05:30:40;13.63;;;12.13;;
50555;SDS011;36508;52.512;13.450;2024-02-26T05:33:06;13.23;;;11.80;;
50555;SDS011;36508;52.512;13.450;2024-02-26T05:35:32;11.93;;;10.57;;
50555;SDS011;36508;52.512;13.450;2024-02-26T05:37:57;13.33;;;11.90;;
50555;SDS011;36508;52.512;13.450;2024-02-26T05:40:23;13.43;;;12.30;;
50555;SDS011;36508;52.512;13.450;2024-02-26T05:42:48;14.57;;;13.13;;
50555;SDS011;36508;52.512;13.450;2024-02-26T05:45:14;14.63;;;13.40;;
50555;SDS011;36508;52.512;13.450;2024-02-26T05:47:40;13.87;;;12.27;;
50555;SDS011;36508;52.512;13.450;2024-02-26T05:50:07;13.07;;;11.90;;
50555;SDS011;36508;52.512;13.450;2024-02-26T05:52:39;14.40;;;13.00;;
50555;SDS011;36508;52.512;13.450;2024-02-26T05:55:05;13.30;;;11.13;;
50555;SDS011;36508;52.512;13.450;2024-02-26T05:57:31;14.20;;;12.90;;
50555;SDS011;36508;52.512;13.450;2024-02-26T05:59:58;13.97;;;12.67;;
50555;SDS011;36508;52.512;13.450;2024-02-26T06:02:28;14.83;;;12.50;;
50555;SDS011;36508;52.512;13.450;2024-02-26T06:04:57;13.67;;;12.30;;
50555;SDS011;36508;52.512;13.450;2024-02-26T06:07:22;14.07;;;12.70;;
50555;SDS011;36508;52.512;13.450;2024-02-26T06:09:48;21.53;;;13.97;;
50555;SDS011;36508;52.512;13.450;2024-02-26T06:12:14;13.77;;;12.50;;
50555;SDS011;36508;52.512;13.450;2024-02-26T06:14:39;13.50;;;12.10;;
50555;SDS011;36508;52.512;13.450;2024-02-26T06:17:07;18.13;;;13.53;;
50555;SDS011;36508;52.512;13.450;2024-02-26T06:19:32;19.20;;;15.43;;
50555;SDS011;36508;52.512;13.450;2024-02-26T06:21:58;19.50;;;17.53;;
50555;SDS011;36508;52.512;13.450;2024-02-26T06:24:23;16.43;;;13.50;;
50555;SDS011;36508;52.512;13.450;2024-02-26T06:26:49;15.70;;;14.03;;
50555;SDS011;36508;52.512;13.450;2024-02-26T06:29:15;15.93;;;14.43;;
50555;SDS011;36508;52.512;13.450;2024-02-26T06:31:40;16.93;;;15.30;;
50555;SDS011;36508;52.512;13.450;2024-02-26T06:34:06;22.23;;;19.97;;
50555;SDS011;36508;52.512;13.450;2024-02-26T06:36:31;24.00;;;20.63;;
50555;SDS011;36508;52.512;13.450;2024-02-26T06:38:58;27.07;;;23.73;;
50555;SDS011;36508;52.512;13.450;2024-02-26T06:41:23;20.00;;;17.90;;
50555;SDS011;36508;52.512;13.450;2024-02-26T06:43:55;20.00;;;18.07;;
50555;SDS011;36508;52.512;13.450;2024-02-26T06:46:21;18.90;;;16.90;;
50555;SDS011;36508;52.512;13.450;2024-02-26T06:48:47;18.97;;;16.93;;
50555;SDS011;36508;52.512;13.450;2024-02-26T06:51:14;18.33;;;16.40;;
50555;SDS011;36508;52.512;13.450;2024-02-26T06:53:40;17.10;;;15.50;;
50555;SDS011;36508;52.512;13.450;2024-02-26T06:56:05;21.20;;;16.67;;
50555;SDS011;36508;52.512;13.450;2024-02-26T06:58:31;19.27;;;15.73;;
50555;SDS011;36508;52.512;13.450;2024-02-26T07:00:56;19.13;;;16.50;;
50555;SDS011;36508;52.512;13.450;2024-02-26T07:03:22;20.53;;;15.00;;
50555;SDS011;36508;52.512;13.450;2024-02-26T07:05:49;19.33;;;15.93;;
50555;SDS011;36508;52.512;13.450;2024-02-26T07:08:15;21.00;;;16.50;;
50555;SDS011;36508;52.512;13.450;2024-02-26T07:10:41;20.13;;;17.67;;
50555;SDS011;36508;52.512;13.450;2024-02-26T07:13:06;19.93;;;17.93;;
50555;SDS011;36508;52.512;13.450;2024-02-26T07:15:32;20.00;;;16.03;;
50555;SDS011;36508;52.512;13.450;2024-02-26T07:17:58;19.23;;;17.53;;
50555;SDS011;36508;52.512;13.450;2024-02-26T07:20:27;16.43;;;14.93;;
50555;SDS011;36508;52.512;13.450;2024-02-26T07:22:56;23.00;;;16.83;;
50555;SDS011;36508;52.512;13.450;2024-02-26T07:25:23;17.17;;;15.53;;
50555;SDS011;36508;52.512;13.450;2024-02-26T07:27:49;19.37;;;17.47;;
50555;SDS011;36508;52.512;13.450;2024-02-26T07:30:15;17.00;;;15.33;;
50555;SDS011;36508;52.512;13.450;2024-02-26T07:32:41;19.90;;;17.07;;
50555;SDS011;36508;52.512;13.450;2024-02-26T07:35:07;18.53;;;16.73;;
50555;SDS011;36508;52.512;13.450;2024-02-26T07:37:33;18.67;;;16.67;;
50555;SDS011;36508;52.512;13.450;2024-02-26T07:39:59;30.13;;;22.23;;
50555;SDS011;36508;52.512;13.450;2024-02-26T07:42:25;22.03;;;19.93;;
50555;SDS011;36508;52.512;13.450;2024-02-26T07:44:51;17.50;;;15.90;;
50555;SDS011;36508;52.512;13.450;2024-02-26T07:47:17;19.70;;;17.90;;
50555;SDS011;36508;52.512;13.450;2024-02-26T07:49:43;21.33;;;19.40;;
50555;SDS011;36508;52.512;13.450;2024-02-26T07:52:09;20.27;;;18.27;;
50555;SDS011;36508;52.512;13.450;2024-02-26T07:54:35;20.00;;;16.67;;
50555;SDS011;36508;52.512;13.450;2024-02-26T07:57:01;20.23;;;18.33;;
50555;SDS011;36508;52.512;13.450;2024-02-26T07:59:30;20.00;;;17.90;;
50555;SDS011;36508;52.512;13.450;2024-02-26T08:01:56;21.03;;;18.93;;
50555;SDS011;36508;52.512;13.450;2024-02-26T08:04:21;19.03;;;17.03;;
50555;SDS011;36508;52.512;13.450;2024-02-26T08:06:47;19.97;;;17.00;;
50555;SDS011;36508;52.512;13.450;2024-02-26T08:09:12;23.70;;;21.30;;
50555;SDS011;36508;52.512;13.450;2024-02-26T08:11:38;21.20;;;19.10;;
50555;SDS011;36508;52.512;13.450;2024-02-26T08:14:04;22.80;;;19.10;;
50555;SDS011;36508;52.512;13.450;2024-02-26T08:16:39;22.17;;;19.07;;
50555;SDS011;36508;52.512;13.450;2024-02-26T08:19:04;23.83;;;21.30;;
50555;SDS011;36508;52.512;13.450;2024-02-26T08:21:30;20.93;;;18.50;;
50555;SDS011;36508;52.512;13.450;2024-02-26T08:23:55;28.73;;;20.00;;
50555;SDS011;36508;52.512;13.450;2024-02-26T08:26:21;21.40;;;19.20;;
50555;SDS011;36508;52.512;13.450;2024-02-26T08:28:53;21.47;;;19.23;;
50555;SDS011;36508;52.512;13.450;2024-02-26T08:34:00;21.63;;;19.60;;
50555;SDS011;36508;52.512;13.450;2024-02-26T08:36:26;22.73;;;20.53;;
50555;SDS011;36508;52.512;13.450;2024-02-26T08:38:52;21.70;;;19.37;;
50555;SDS011;36508;52.512;13.450;2024-02-26T08:41:17;22.80;;;20.63;;
50555;SDS011;36508;52.512;13.450;2024-02-26T08:43:43;21.87;;;19.60;;
50555;SDS011;36508;52.512;13.450;2024-02-26T08:46:09;21.90;;;18.73;;
50555;SDS011;36508;52.512;13.450;2024-02-26T08:48:35;21.17;;;18.47;;
50555;SDS011;36508;52.512;13.450;2024-02-26T08:51:04;23.90;;;18.73;;
50555;SDS011;36508;52.512;13.450;2024-02-26T08:53:31;19.17;;;17.37;;
50555;SDS011;36508;52.512;13.450;2024-02-26T08:55:57;20.53;;;18.77;;
50555;SDS011;36508;52.512;13.450;2024-02-26T08:58:22;19.07;;;17.50;;
50555;SDS011;36508;52.512;13.450;2024-02-26T09:00:48;22.90;;;18.63;;
50555;SDS011;36508;52.512;13.450;2024-02-26T09:03:13;20.50;;;18.70;;
50555;SDS011;36508;52.512;13.450;2024-02-26T09:05:39;23.20;;;18.73;;
50555;SDS011;36508;52.512;13.450;2024-02-26T09:08:05;18.90;;;17.10;;
50555;SDS011;36508;52.512;13.450;2024-02-26T09:10:31;18.90;;;17.20;;
50555;SDS011;36508;52.512;13.450;2024-02-26T09:12:58;21.60;;;19.27;;
50555;SDS011;36508;52.512;13.450;2024-02-26T09:15:23;19.30;;;17.47;;
50555;SDS011;36508;52.512;13.450;2024-02-26T09:17:49;19.23;;;17.43;;
50555;SDS011;36508;52.512;13.450;2024-02-26T09:20:15;18.20;;;16.50;;
50555;SDS011;36508;52.512;13.450;2024-02-26T09:22:44;20.17;;;18.20;;
50555;SDS011;36508;52.512;13.450;2024-02-26T09:25:11;22.83;;;20.73;;
50555;SDS011;36508;52.512;13.450;2024-02-26T09:27:36;24.97;;;18.27;;
50555;SDS011;36508;52.512;13.450;2024-02-26T09:30:02;21.60;;;18.97;;
50555;SDS011;36508;52.512;13.450;2024-02-26T09:32:28;20.83;;;17.07;;
50555;SDS011;36508;52.512;13.450;2024-02-26T09:34:55;15.80;;;14.20;;
50555;SDS011;36508;52.512;13.450;2024-02-26T09:37:21;17.60;;;15.90;;
50555;SDS011;36508;52.512;13.450;2024-02-26T09:39:46;19.17;;;17.33;;
50555;SDS011;36508;52.512;13.450;2024-02-26T09:42:12;18.87;;;17.17;;
50555;SDS011;36508;52.512;13.450;2024-02-26T09:44:39;19.10;;;17.30;;
50555;SDS011;36508;52.512;13.450;2024-02-26T09:47:07;19.80;;;17.77;;
50555;SDS011;36508;52.512;13.450;2024-02-26T09:49:35;18.77;;;16.37;;
50555;SDS011;36508;52.512;13.450;2024-02-26T09:52:01;19.60;;;17.73;;
50555;SDS011;36508;52.512;13.450;2024-02-26T09:54:29;18.10;;;16.00;;
50555;SDS011;36508;52.512;13.450;2024-02-26T09:59:26;16.70;;;15.10;;
50555;SDS011;36508;52.512;13.450;2024-02-26T10:01:53;16.67;;;15.13;;
50555;SDS011;36508;52.512;13.450;2024-02-26T10:04:19;18.07;;;16.27;;
50555;SDS011;36508;52.512;13.450;2024-02-26T10:06:46;17.83;;;14.97;;
50555;SDS011;36508;52.512;13.450;2024-02-26T10:09:12;17.47;;;15.57;;
50555;SDS011;36508;52.512;13.450;2024-02-26T10:11:40;16.47;;;14.87;;
50555;SDS011;36508;52.512;13.450;2024-02-26T10:14:08;17.30;;;14.57;;
50555;SDS011;36508;52.512;13.450;2024-02-26T10:16:33;16.57;;;15.03;;
50555;SDS011;36508;52.512;13.450;2024-02-26T10:19:00;17.27;;;15.50;;
50555;SDS011;36508;52.512;13.450;2024-02-26T10:21:26;14.93;;;13.70;;
50555;SDS011;36508;52.512;13.450;2024-02-26T10:23:51;16.60;;;14.90;;
50555;SDS011;36508;52.512;13.450;2024-02-26T10:26:17;17.03;;;15.17;;
50555;SDS011;36508;52.512;13.450;2024-02-26T10:28:44;15.67;;;14.07;;
50555;SDS011;36508;52.512;13.450;2024-02-26T10:31:10;14.13;;;13.03;;
50555;SDS011;36508;52.512;13.450;2024-02-26T10:36:13;14.00;;;13.00;;
50555;SDS011;36508;52.512;13.450;2024-02-26T10:38:39;16.33;;;14.20;;
50555;SDS011;36508;52.512;13.450;2024-02-26T10:41:09;14.07;;;13.07;;
50555;SDS011;36508;52.512;13.450;2024-02-26T10:43:39;13.07;;;11.97;;
50555;SDS011;36508;52.512;13.450;2024-02-26T10:46:05;15.63;;;14.30;;
50555;SDS011;36508;52.512;13.450;2024-02-26T10:48:31;13.10;;;12.00;;
50555;SDS011;36508;52.512;13.450;2024-02-26T10:50:57;14.43;;;13.13;;
50555;SDS011;36508;52.512;13.450;2024-02-26T10:53:23;16.10;;;12.73;;
50555;SDS011;36508;52.512;13.450;2024-02-26T10:56:03;13.43;;;12.13;;
50555;SDS011;36508;52.512;13.450;2024-02-26T10:58:32;12.70;;;11.83;;
50555;SDS011;36508;52.512;13.450;2024-02-26T11:00:59;14.13;;;12.93;;
50555;SDS011;36508;52.512;13.450;2024-02-26T11:03:25;13.50;;;12.40;;
50555;SDS011;36508;52.512;13.450;2024-02-26T11:05:52;14.13;;;13.07;;
50555;SDS011;36508;52.512;13.450;2024-02-26T11:08:19;17.47;;;15.90;;
50555;SDS011;36508;52.512;13.450;2024-02-26T11:10:50;14.17;;;12.73;;
50555;SDS011;36508;52.512;13.450;2024-02-26T11:13:18;14.87;;;12.77;;
50555;SDS011;36508;52.512;13.450;2024-02-26T11:15:47;13.87;;;12.70;;
50555;SDS011;36508;52.512;13.450;2024-02-26T11:18:15;13.13;;;12.10;;
50555;SDS011;36508;52.512;13.450;2024-02-26T11:20:43;12.20;;;11.20;;
50555;SDS011;36508;52.512;13.450;2024-02-26T11:23:11;10.80;;;9.90;;
50555;SDS011;36508;52.512;13.450;2024-02-26T11:25:36;12.93;;;11.53;;
50555;SDS011;36508;52.512;13.450;2024-02-26T11:28:04;13.27;;;12.17;;
50555;SDS011;36508;52.512;13.450;2024-02-26T11:30:34;13.47;;;12.00;;
50555;SDS011;36508;52.512;13.450;2024-02-26T11:33:04;12.30;;;11.17;;
50555;SDS011;36508;52.512;13.450;2024-02-26T11:35:39;12.50;;;11.60;;
50555;SDS011;36508;52.512;13.450;2024-02-26T11:38:06;13.03;;;12.03;;
50555;SDS011;36508;52.512;13.450;2024-02-26T11:40:32;12.53;;;11.27;;
50555;SDS011;36508;52.512;13.450;2024-02-26T11:42:59;10.70;;;9.80;;
50555;SDS011;36508;52.512;13.450;2024-02-26T11:48:13;12.70;;;11.80;;
50555;SDS011;36508;52.512;13.450;2024-02-26T11:50:41;14.00;;;11.20;;
50555;SDS011;36508;52.512;13.450;2024-02-26T11:58:57;13.57;;;12.50;;
50555;SDS011;36508;52.512;13.450;2024-02-26T12:04:19;14.27;;;13.00;;
50555;SDS011;36508;52.512;13.450;2024-02-26T12:07:00;13.70;;;12.63;;
50555;SDS011;36508;52.512;13.450;2024-02-26T12:09:30;13.33;;;12.30;;
50555;SDS011;36508;52.512;13.450;2024-02-26T12:12:04;13.37;;;12.30;;
50555;SDS011;36508;52.512;13.450;2024-02-26T12:14:36;15.80;;;14.50;;
50555;SDS011;36508;52.512;13.450;2024-02-26T12:17:06;14.30;;;13.13;;
50555;SDS011;36508;52.512;13.450;2024-02-26T12:19:40;14.57;;;13.53;;
50555;SDS011;36508;52.512;13.450;2024-02-26T12:22:06;15.87;;;14.47;;
50555;SDS011;36508;52.512;13.450;2024-02-26T12:24:33;13.70;;;12.60;;
50555;SDS011;36508;52.512;13.450;2024-02-26T12:26:58;14.03;;;12.83;;
50555;SDS011;36508;52.512;13.450;2024-02-26T12:29:24;13.20;;;12.20;;
50555;SDS011;36508;52.512;13.450;2024-02-26T12:31:50;11.30;;;10.50;;
50555;SDS011;36508;52.512;13.450;2024-02-26T12:34:16;14.33;;;12.97;;
50555;SDS011;36508;52.512;13.450;2024-02-26T12:36:42;12.67;;;11.77;;
50555;SDS011;36508;52.512;13.450;2024-02-26T12:39:07;13.43;;;12.53;;
50555;SDS011;36508;52.512;13.450;2024-02-26T12:41:34;13.03;;;12.10;;
50555;SDS011;36508;52.512;13.450;2024-02-26T12:44:00;12.10;;;11.20;;
50555;SDS011;36508;52.512;13.450;2024-02-26T12:46:26;14.93;;;13.73;;
50555;SDS011;36508;52.512;13.450;2024-02-26T12:48:54;13.03;;;12.13;;
50555;SDS011;36508;52.512;13.450;2024-02-26T12:51:22;13.70;;;12.60;;
50555;SDS011;36508;52.512;13.450;2024-02-26T12:53:48;12.70;;;11.80;;
50555;SDS011;36508;52.512;13.450;2024-02-26T12:56:17;13.43;;;12.47;;
50555;SDS011;36508;52.512;13.450;2024-02-26T12:58:43;13.10;;;11.93;;
50555;SDS011;36508;52.512;13.450;2024-02-26T13:01:13;11.83;;;10.80;;
50555;SDS011;36508;52.512;13.450;2024-02-26T13:03:40;10.93;;;9.87;;
50555;SDS011;36508;52.512;13.450;2024-02-26T13:06:06;10.20;;;9.40;;
50555;SDS011;36508;52.512;13.450;2024-02-26T13:08:32;12.00;;;11.17;;
50555;SDS011;36508;52.512;13.450;2024-02-26T13:10:58;11.83;;;10.87;;
50555;SDS011;36508;52.512;13.450;2024-02-26T13:13:24;10.67;;;9.87;;
50555;SDS011;36508;52.512;13.450;2024-02-26T13:15:50;10.50;;;9.70;;
50555;SDS011;36508;52.512;13.450;2024-02-26T13:18:30;11.33;;;10.53;;
50555;SDS011;36508;52.512;13.450;2024-02-26T13:21:07;9.30;;;8.60;;
50555;SDS011;36508;52.512;13.450;2024-02-26T13:23:36;15.50;;;14.07;;
50555;SDS011;36508;52.512;13.450;2024-02-26T13:26:03;9.33;;;8.70;;
50555;SDS011;36508;52.512;13.450;2024-02-26T13:28:28;9.27;;;8.47;;
50555;SDS011;36508;52.512;13.450;2024-02-26T13:30:55;9.93;;;9.13;;
50555;SDS011;36508;52.512;13.450;2024-02-26T13:33:22;8.63;;;8.00;;
50555;SDS011;36508;52.512;13.450;2024-02-26T13:35:48;8.87;;;8.10;;
50555;SDS011;36508;52.512;13.450;2024-02-26T13:38:13;7.83;;;7.33;;
50555;SDS011;36508;52.512;13.450;2024-02-26T13:40:39;9.87;;;9.07;;
50555;SDS011;36508;52.512;13.450;2024-02-26T13:43:05;10.03;;;9.03;;
50555;SDS011;36508;52.512;13.450;2024-02-26T13:45:33;11.17;;;8.13;;
50555;SDS011;36508;52.512;13.450;2024-02-26T13:48:03;8.63;;;7.90;;
50555;SDS011;36508;52.512;13.450;2024-02-26T13:50:30;8.37;;;7.70;;
50555;SDS011;36508;52.512;13.450;2024-02-26T13:52:56;8.60;;;7.67;;
50555;SDS011;36508;52.512;13.450;2024-02-26T13:55:23;9.07;;;8.47;;
50555;SDS011;36508;52.512;13.450;2024-02-26T13:57:51;8.30;;;7.60;;
50555;SDS011;36508;52.512;13.450;2024-02-26T14:00:18;7.87;;;7.27;;
50555;SDS011;36508;52.512;13.450;2024-02-26T14:02:45;8.30;;;7.60;;
50555;SDS011;36508;52.512;13.450;2024-02-26T14:05:10;10.53;;;9.57;;
50555;SDS011;36508;52.512;13.450;2024-02-26T14:07:36;19.43;;;11.43;;
50555;SDS011;36508;52.512;13.450;2024-02-26T14:10:02;9.33;;;8.63;;
50555;SDS011;36508;52.512;13.450;2024-02-26T14:12:28;9.63;;;8.73;;
50555;SDS011;36508;52.512;13.450;2024-02-26T14:14:56;14.23;;;10.70;;
50555;SDS011;36508;52.512;13.450;2024-02-26T14:17:23;9.50;;;8.67;;
50555;SDS011;36508;52.512;13.450;2024-02-26T14:19:49;10.17;;;8.57;;
50555;SDS011;36508;52.512;13.450;2024-02-26T14:22:15;9.60;;;8.80;;
50555;SDS011;36508;52.512;13.450;2024-02-26T14:24:41;8.90;;;8.20;;
50555;SDS011;36508;52.512;13.450;2024-02-26T14:27:12;15.47;;;12.07;;
50555;SDS011;36508;52.512;13.450;2024-02-26T14:29:42;10.47;;;8.50;;
50555;SDS011;36508;52.512;13.450;2024-02-26T14:32:09;8.70;;;7.93;;
50555;SDS011;36508;52.512;13.450;2024-02-26T14:34:34;9.93;;;9.03;;